sensor_id;sensor_type;location;lat;lon;timestamp;P1;durP1;ratioP1;P2;durP2;ratioP2
64894;SDS011;51588;53.702;10.208;2023-11-21T00:01:09;11.77;;;6.23;;
64894;SDS011;51588;53.702;10.208;2023-11-21T00:03:35;8.47;;;5.83;;
64894;SDS011;51588;53.702;10.208;2023-11-21T00:06:02;7.73;;;5.30;;
64894;SDS011;51588;53.702;10.208;2023-11-21T00:08:31;8.53;;;5.53;;
64894;SDS011;51588;53.702;10.208;2023-11-21T00:10:57;9.20;;;5.77;;
64894;SDS011;51588;53.702;10.208;2023-11-21T00:13:28;9.40;;;5.93;;
64894;SDS011;51588;53.702;10.208;2023-11-21T00:15:54;8.87;;;5.50;;
64894;SDS011;51588;53.702;10.208;2023-11-21T00:18:21;8.33;;;5.40;;
64894;SDS011;51588;53.702;10.208;2023-11-21T00:20:50;7.90;;;5.60;;
64894;SDS011;51588;53.702;10.208;2023-11-21T00:23:17;8.30;;;5.67;;
64894;SDS011;51588;53.702;10.208;2023-11-21T00:25:45;8.17;;;5.57;;
64894;SDS011;51588;53.702;10.208;2023-11-21T00:28:11;8.40;;;5.13;;
64894;SDS011;51588;53.702;10.208;2023-11-21T00:30:38;7.77;;;5.33;;
64894;SDS011;51588;53.702;10.208;2023-11-21T00:33:04;8.33;;;5.20;;
64894;SDS011;51588;53.702;10.208;2023-11-21T00:35:31;7.53;;;5.30;;
64894;SDS011;51588;53.702;10.208;2023-11-21T00:38:00;9.00;;;5.60;;
64894;SDS011;51588;53.702;10.208;2023-11-21T00:40:26;6.47;;;4.80;;
64894;SDS011;51588;53.702;10.208;2023-11-21T00:42:54;8.90;;;5.80;;
64894;SDS011;51588;53.702;10.208;2023-11-21T00:45:21;7.70;;;5.00;;
64894;SDS011;51588;53.702;10.208;2023-11-21T00:47:48;7.90;;;5.10;;
64894;SDS011;51588;53.702;10.208;2023-11-21T00:50:14;8.10;;;4.70;;
64894;SDS011;51588;53.702;10.208;2023-11-21T00:52:41;7.70;;;4.83;;
64894;SDS011;51588;53.702;10.208;2023-11-21T00:55:11;6.90;;;5.10;;
64894;SDS011;51588;53.702;10.208;2023-11-21T00:57:43;8.30;;;4.60;;
64894;SDS011;51588;53.702;10.208;2023-11-21T01:00:11;7.33;;;5.00;;
64894;SDS011;51588;53.702;10.208;2023-11-21T01:02:42;7.23;;;4.53;;
64894;SDS011;51588;53.702;10.208;2023-11-21T01:05:09;5.17;;;4.30;;
64894;SDS011;51588;53.702;10.208;2023-11-21T01:07:36;6.97;;;4.73;;
64894;SDS011;51588;53.702;10.208;2023-11-21T01:10:03;5.93;;;4.37;;
64894;SDS011;51588;53.702;10.208;2023-11-21T01:12:32;7.27;;;4.90;;
64894;SDS011;51588;53.702;10.208;2023-11-21T01:14:59;6.50;;;4.40;;
64894;SDS011;51588;53.702;10.208;2023-11-21T01:17:27;5.80;;;4.60;;
64894;SDS011;51588;53.702;10.208;2023-11-21T01:19:55;5.40;;;4.23;;
64894;SDS011;51588;53.702;10.208;2023-11-21T01:22:22;7.23;;;4.70;;
64894;SDS011;51588;53.702;10.208;2023-11-21T01:24:51;5.93;;;4.53;;
64894;SDS011;51588;53.702;10.208;2023-11-21T01:27:17;6.30;;;4.60;;
64894;SDS011;51588;53.702;10.208;2023-11-21T01:29:46;6.30;;;4.43;;
64894;SDS011;51588;53.702;10.208;2023-11-21T01:32:13;4.87;;;3.87;;
64894;SDS011;51588;53.702;10.208;2023-11-21T01:34:41;5.43;;;4.33;;
64894;SDS011;51588;53.702;10.208;2023-11-21T01:37:07;7.63;;;3.90;;
64894;SDS011;51588;53.702;10.208;2023-11-21T01:39:37;5.00;;;4.20;;
64894;SDS011;51588;53.702;10.208;2023-11-21T01:42:04;5.70;;;3.90;;
64894;SDS011;51588;53.702;10.208;2023-11-21T01:44:31;5.73;;;4.10;;
64894;SDS011;51588;53.702;10.208;2023-11-21T01:46:58;5.80;;;4.00;;
64894;SDS011;51588;53.702;10.208;2023-11-21T01:49:29;4.43;;;3.40;;
64894;SDS011;51588;53.702;10.208;2023-11-21T01:52:01;5.87;;;3.93;;
64894;SDS011;51588;53.702;10.208;2023-11-21T01:54:29;5.20;;;3.83;;
64894;SDS011;51588;53.702;10.208;2023-11-21T01:56:57;5.27;;;3.93;;
64894;SDS011;51588;53.702;10.208;2023-11-21T01:59:28;5.07;;;3.87;;
64894;SDS011;51588;53.702;10.208;2023-11-21T02:02:04;7.60;;;3.83;;
64894;SDS011;51588;53.702;10.208;2023-11-21T02:04:31;5.33;;;4.10;;
64894;SDS011;51588;53.702;10.208;2023-11-21T02:06:58;4.47;;;3.40;;
64894;SDS011;51588;53.702;10.208;2023-11-21T02:09:27;4.30;;;3.57;;
64894;SDS011;51588;53.702;10.208;2023-11-21T02:11:56;5.47;;;3.60;;
64894;SDS011;51588;53.702;10.208;2023-11-21T02:14:25;3.70;;;3.30;;
64894;SDS011;51588;53.702;10.208;2023-11-21T02:16:53;4.93;;;3.63;;
64894;SDS011;51588;53.702;10.208;2023-11-21T02:19:20;3.50;;;3.20;;
64894;SDS011;51588;53.702;10.208;2023-11-21T02:21:49;3.93;;;3.53;;
64894;SDS011;51588;53.702;10.208;2023-11-21T02:24:18;4.97;;;3.40;;
64894;SDS011;51588;53.702;10.208;2023-11-21T02:26:46;5.33;;;3.40;;
64894;SDS011;51588;53.702;10.208;2023-11-21T02:29:12;3.70;;;3.13;;
64894;SDS011;51588;53.702;10.208;2023-11-21T02:31:41;4.17;;;3.37;;
64894;SDS011;51588;53.702;10.208;2023-11-21T02:34:13;5.90;;;3.63;;
64894;SDS011;51588;53.702;10.208;2023-11-21T02:36:40;3.80;;;3.27;;
64894;SDS011;51588;53.702;10.208;2023-11-21T02:39:07;3.30;;;2.83;;
64894;SDS011;51588;53.702;10.208;2023-11-21T02:41:35;4.10;;;3.43;;
64894;SDS011;51588;53.702;10.208;2023-11-21T02:44:02;3.90;;;3.30;;
64894;SDS011;51588;53.702;10.208;2023-11-21T02:46:31;3.50;;;3.20;;
64894;SDS011;51588;53.702;10.208;2023-11-21T02:48:58;4.20;;;3.23;;
64894;SDS011;51588;53.702;10.208;2023-11-21T02:51:25;3.60;;;3.13;;
64894;SDS011;51588;53.702;10.208;2023-11-21T02:53:52;4.40;;;3.00;;
64894;SDS011;51588;53.702;10.208;2023-11-21T02:56:18;4.17;;;3.40;;
64894;SDS011;51588;53.702;10.208;2023-11-21T02:58:46;4.60;;;3.23;;
64894;SDS011;51588;53.702;10.208;2023-11-21T03:01:13;3.40;;;3.00;;
64894;SDS011;51588;53.702;10.208;2023-11-21T03:03:39;4.47;;;3.40;;
64894;SDS011;51588;53.702;10.208;2023-11-21T03:06:07;3.50;;;3.00;;
64894;SDS011;51588;53.702;10.208;2023-11-21T03:08:33;3.40;;;3.00;;
64894;SDS011;51588;53.702;10.208;2023-11-21T03:11:00;3.70;;;3.30;;
64894;SDS011;51588;53.702;10.208;2023-11-21T03:13:28;4.33;;;3.10;;
64894;SDS011;51588;53.702;10.208;2023-11-21T03:15:56;3.40;;;3.10;;
64894;SDS011;51588;53.702;10.208;2023-11-21T03:18:22;3.50;;;3.10;;
64894;SDS011;51588;53.702;10.208;2023-11-21T03:20:51;5.47;;;3.20;;
64894;SDS011;51588;53.702;10.208;2023-11-21T03:23:18;4.40;;;3.40;;
64894;SDS011;51588;53.702;10.208;2023-11-21T03:25:48;3.67;;;3.13;;
64894;SDS011;51588;53.702;10.208;2023-11-21T03:28:14;3.83;;;3.00;;
64894;SDS011;51588;53.702;10.208;2023-11-21T03:30:41;3.17;;;2.90;;
64894;SDS011;51588;53.702;10.208;2023-11-21T03:33:11;4.00;;;2.93;;
64894;SDS011;51588;53.702;10.208;2023-11-21T03:35:41;3.40;;;2.53;;
64894;SDS011;51588;53.702;10.208;2023-11-21T03:38:13;3.63;;;3.00;;
64894;SDS011;51588;53.702;10.208;2023-11-21T03:40:39;3.63;;;3.17;;
64894;SDS011;51588;53.702;10.208;2023-11-21T03:43:06;3.10;;;2.80;;
64894;SDS011;51588;53.702;10.208;2023-11-21T03:45:32;4.13;;;3.30;;
64894;SDS011;51588;53.702;10.208;2023-11-21T03:47:59;3.47;;;2.97;;
64894;SDS011;51588;53.702;10.208;2023-11-21T03:50:42;2.90;;;2.60;;
64894;SDS011;51588;53.702;10.208;2023-11-21T03:53:09;3.90;;;3.03;;
64894;SDS011;51588;53.702;10.208;2023-11-21T03:55:35;3.40;;;2.63;;
64894;SDS011;51588;53.702;10.208;2023-11-21T03:58:02;3.47;;;3.00;;
64894;SDS011;51588;53.702;10.208;2023-11-21T04:00:28;5.93;;;3.30;;
64894;SDS011;51588;53.702;10.208;2023-11-21T04:02:55;2.60;;;2.40;;
64894;SDS011;51588;53.702;10.208;2023-11-21T04:05:22;3.00;;;2.70;;
64894;SDS011;51588;53.702;10.208;2023-11-21T04:07:50;3.53;;;2.70;;
64894;SDS011;51588;53.702;10.208;2023-11-21T04:10:17;3.70;;;2.77;;
64894;SDS011;51588;53.702;10.208;2023-11-21T04:12:50;3.00;;;2.70;;
64894;SDS011;51588;53.702;10.208;2023-11-21T04:15:16;3.60;;;3.07;;
64894;SDS011;51588;53.702;10.208;2023-11-21T04:17:43;3.10;;;2.80;;
64894;SDS011;51588;53.702;10.208;2023-11-21T04:20:10;3.43;;;2.77;;
64894;SDS011;51588;53.702;10.208;2023-11-21T04:22:37;3.10;;;2.63;;
64894;SDS011;51588;53.702;10.208;2023-11-21T04:25:09;3.47;;;3.10;;
64894;SDS011;51588;53.702;10.208;2023-11-21T04:27:38;3.30;;;3.00;;
64894;SDS011;51588;53.702;10.208;2023-11-21T04:30:05;3.40;;;3.10;;
64894;SDS011;51588;53.702;10.208;2023-11-21T04:32:33;2.83;;;2.50;;
64894;SDS011;51588;53.702;10.208;2023-11-21T04:34:59;3.20;;;2.90;;
64894;SDS011;51588;53.702;10.208;2023-11-21T04:37:26;3.33;;;2.63;;
64894;SDS011;51588;53.702;10.208;2023-11-21T04:39:53;4.90;;;2.80;;
64894;SDS011;51588;53.702;10.208;2023-11-21T04:42:27;4.47;;;2.93;;
64894;SDS011;51588;53.702;10.208;2023-11-21T04:44:57;2.63;;;2.27;;
64894;SDS011;51588;53.702;10.208;2023-11-21T04:47:23;2.97;;;2.43;;
64894;SDS011;51588;53.702;10.208;2023-11-21T04:49:50;2.73;;;2.40;;
64894;SDS011;51588;53.702;10.208;2023-11-21T04:52:18;2.80;;;2.60;;
64894;SDS011;51588;53.702;10.208;2023-11-21T04:54:46;3.53;;;3.10;;
64894;SDS011;51588;53.702;10.208;2023-11-21T04:57:13;3.40;;;2.80;;
64894;SDS011;51588;53.702;10.208;2023-11-21T04:59:41;3.50;;;2.90;;
64894;SDS011;51588;53.702;10.208;2023-11-21T05:02:08;3.83;;;3.07;;
64894;SDS011;51588;53.702;10.208;2023-11-21T05:04:33;3.57;;;2.90;;
64894;SDS011;51588;53.702;10.208;2023-11-21T05:07:00;3.87;;;3.10;;
64894;SDS011;51588;53.702;10.208;2023-11-21T05:09:27;3.27;;;2.93;;
64894;SDS011;51588;53.702;10.208;2023-11-21T05:12:03;3.77;;;2.87;;
64894;SDS011;51588;53.702;10.208;2023-11-21T05:14:30;3.40;;;2.90;;
64894;SDS011;51588;53.702;10.208;2023-11-21T05:17:00;3.90;;;2.87;;
64894;SDS011;51588;53.702;10.208;2023-11-21T05:19:26;3.20;;;2.90;;
64894;SDS011;51588;53.702;10.208;2023-11-21T05:21:53;3.10;;;2.80;;
64894;SDS011;51588;53.702;10.208;2023-11-21T05:24:23;3.40;;;3.10;;
64894;SDS011;51588;53.702;10.208;2023-11-21T05:26:49;4.27;;;2.90;;
64894;SDS011;51588;53.702;10.208;2023-11-21T05:29:16;2.70;;;2.50;;
64894;SDS011;51588;53.702;10.208;2023-11-21T05:31:42;3.23;;;2.93;;
64894;SDS011;51588;53.702;10.208;2023-11-21T05:34:10;3.27;;;2.97;;
64894;SDS011;51588;53.702;10.208;2023-11-21T05:36:37;3.10;;;2.60;;
64894;SDS011;51588;53.702;10.208;2023-11-21T05:39:03;2.87;;;2.67;;
64894;SDS011;51588;53.702;10.208;2023-11-21T05:41:30;3.17;;;2.87;;
64894;SDS011;51588;53.702;10.208;2023-11-21T05:44:03;3.63;;;2.87;;
64894;SDS011;51588;53.702;10.208;2023-11-21T05:46:31;3.30;;;3.00;;
64894;SDS011;51588;53.702;10.208;2023-11-21T05:49:04;3.03;;;2.70;;
64894;SDS011;51588;53.702;10.208;2023-11-21T05:51:32;2.83;;;2.53;;
64894;SDS011;51588;53.702;10.208;2023-11-21T05:53:58;3.27;;;2.97;;
64894;SDS011;51588;53.702;10.208;2023-11-21T05:56:25;2.70;;;2.47;;
64894;SDS011;51588;53.702;10.208;2023-11-21T05:58:52;2.80;;;2.60;;
64894;SDS011;51588;53.702;10.208;2023-11-21T06:01:18;2.73;;;2.53;;
64894;SDS011;51588;53.702;10.208;2023-11-21T06:03:45;4.30;;;3.00;;
64894;SDS011;51588;53.702;10.208;2023-11-21T06:06:12;10.20;;;3.47;;
64894;SDS011;51588;53.702;10.208;2023-11-21T06:08:43;9.07;;;3.80;;
64894;SDS011;51588;53.702;10.208;2023-11-21T06:11:09;18.33;;;4.37;;
64894;SDS011;51588;53.702;10.208;2023-11-21T06:13:36;23.70;;;5.50;;
64894;SDS011;51588;53.702;10.208;2023-11-21T06:16:03;14.97;;;5.60;;
64894;SDS011;51588;53.702;10.208;2023-11-21T06:18:39;20.33;;;5.53;;
64894;SDS011;51588;53.702;10.208;2023-11-21T06:21:08;19.73;;;5.00;;
64894;SDS011;51588;53.702;10.208;2023-11-21T06:23:35;15.27;;;4.47;;
64894;SDS011;51588;53.702;10.208;2023-11-21T06:26:06;15.63;;;4.90;;
64894;SDS011;51588;53.702;10.208;2023-11-21T06:28:34;24.07;;;5.00;;
64894;SDS011;51588;53.702;10.208;2023-11-21T06:31:01;13.17;;;4.73;;
64894;SDS011;51588;53.702;10.208;2023-11-21T06:33:30;10.33;;;4.50;;
64894;SDS011;51588;53.702;10.208;2023-11-21T06:35:59;7.57;;;4.03;;
64894;SDS011;51588;53.702;10.208;2023-11-21T06:38:28;13.50;;;4.13;;
64894;SDS011;51588;53.702;10.208;2023-11-21T06:40:57;6.80;;;3.83;;
64894;SDS011;51588;53.702;10.208;2023-11-21T06:43:28;9.50;;;3.80;;
64894;SDS011;51588;53.702;10.208;2023-11-21T06:45:56;5.20;;;4.13;;
64894;SDS011;51588;53.702;10.208;2023-11-21T06:48:22;9.60;;;3.57;;
64894;SDS011;51588;53.702;10.208;2023-11-21T06:50:49;7.80;;;3.87;;
64894;SDS011;51588;53.702;10.208;2023-11-21T06:53:17;7.50;;;3.67;;
64894;SDS011;51588;53.702;10.208;2023-11-21T06:55:44;9.20;;;3.93;;
64894;SDS011;51588;53.702;10.208;2023-11-21T06:58:11;5.67;;;3.50;;
64894;SDS011;51588;53.702;10.208;2023-11-21T07:00:43;8.77;;;3.70;;
64894;SDS011;51588;53.702;10.208;2023-11-21T07:03:12;6.47;;;3.60;;
64894;SDS011;51588;53.702;10.208;2023-11-21T07:05:38;7.50;;;4.00;;
64894;SDS011;51588;53.702;10.208;2023-11-21T07:08:05;7.30;;;3.70;;
64894;SDS011;51588;53.702;10.208;2023-11-21T07:10:32;6.00;;;3.33;;
64894;SDS011;51588;53.702;10.208;2023-11-21T07:13:00;7.67;;;3.30;;
64894;SDS011;51588;53.702;10.208;2023-11-21T07:15:26;8.30;;;3.10;;
64894;SDS011;51588;53.702;10.208;2023-11-21T07:17:54;4.90;;;3.47;;
64894;SDS011;51588;53.702;10.208;2023-11-21T07:20:21;6.70;;;3.83;;
64894;SDS011;51588;53.702;10.208;2023-11-21T07:22:48;4.73;;;3.10;;
64894;SDS011;51588;53.702;10.208;2023-11-21T07:25:15;5.90;;;3.10;;
64894;SDS011;51588;53.702;10.208;2023-11-21T07:27:41;6.50;;;3.10;;
64894;SDS011;51588;53.702;10.208;2023-11-21T07:30:08;5.53;;;3.57;;
64894;SDS011;51588;53.702;10.208;2023-11-21T07:32:37;10.10;;;3.53;;
64894;SDS011;51588;53.702;10.208;2023-11-21T07:35:06;5.50;;;3.57;;
64894;SDS011;51588;53.702;10.208;2023-11-21T07:37:33;5.23;;;3.03;;
64894;SDS011;51588;53.702;10.208;2023-11-21T07:39:59;6.53;;;3.07;;
64894;SDS011;51588;53.702;10.208;2023-11-21T07:42:26;4.40;;;3.20;;
64894;SDS011;51588;53.702;10.208;2023-11-21T07:44:53;5.40;;;3.40;;
64894;SDS011;51588;53.702;10.208;2023-11-21T07:47:19;6.00;;;3.60;;
64894;SDS011;51588;53.702;10.208;2023-11-21T07:49:46;3.63;;;2.97;;
64894;SDS011;51588;53.702;10.208;2023-11-21T07:52:14;4.40;;;3.07;;
64894;SDS011;51588;53.702;10.208;2023-11-21T07:54:41;3.50;;;2.90;;
64894;SDS011;51588;53.702;10.208;2023-11-21T07:57:08;3.70;;;3.00;;
64894;SDS011;51588;53.702;10.208;2023-11-21T07:59:36;6.27;;;2.93;;
64894;SDS011;51588;53.702;10.208;2023-11-21T08:02:03;3.80;;;3.00;;
64894;SDS011;51588;53.702;10.208;2023-11-21T08:04:32;4.73;;;2.83;;
64894;SDS011;51588;53.702;10.208;2023-11-21T08:06:59;3.27;;;2.40;;
64894;SDS011;51588;53.702;10.208;2023-11-21T08:09:27;3.00;;;2.70;;
64894;SDS011;51588;53.702;10.208;2023-11-21T08:11:53;3.83;;;3.17;;
64894;SDS011;51588;53.702;10.208;2023-11-21T08:14:20;3.33;;;2.50;;
64894;SDS011;51588;53.702;10.208;2023-11-21T08:16:47;2.73;;;2.30;;
64894;SDS011;51588;53.702;10.208;2023-11-21T08:19:13;5.67;;;2.70;;
64894;SDS011;51588;53.702;10.208;2023-11-21T08:21:41;4.63;;;2.53;;
64894;SDS011;51588;53.702;10.208;2023-11-21T08:24:08;3.20;;;2.70;;
64894;SDS011;51588;53.702;10.208;2023-11-21T08:26:37;4.07;;;2.50;;
64894;SDS011;51588;53.702;10.208;2023-11-21T08:29:09;3.50;;;2.93;;
64894;SDS011;51588;53.702;10.208;2023-11-21T08:31:36;3.30;;;3.00;;
64894;SDS011;51588;53.702;10.208;2023-11-21T08:34:03;3.53;;;2.77;;
64894;SDS011;51588;53.702;10.208;2023-11-21T08:36:30;3.33;;;2.80;;
64894;SDS011;51588;53.702;10.208;2023-11-21T08:38:59;2.63;;;2.43;;
64894;SDS011;51588;53.702;10.208;2023-11-21T08:41:26;3.20;;;2.90;;
64894;SDS011;51588;53.702;10.208;2023-11-21T08:43:57;2.83;;;2.53;;
64894;SDS011;51588;53.702;10.208;2023-11-21T08:46:23;8.17;;;2.70;;
64894;SDS011;51588;53.702;10.208;2023-11-21T08:48:51;3.50;;;2.57;;
64894;SDS011;51588;53.702;10.208;2023-11-21T08:51:18;2.73;;;2.53;;
64894;SDS011;51588;53.702;10.208;2023-11-21T08:53:45;3.10;;;2.70;;
64894;SDS011;51588;53.702;10.208;2023-11-21T08:56:12;3.50;;;2.30;;
64894;SDS011;51588;53.702;10.208;2023-11-21T08:58:40;2.73;;;2.47;;
64894;SDS011;51588;53.702;10.208;2023-11-21T09:01:08;2.90;;;2.30;;
64894;SDS011;51588;53.702;10.208;2023-11-21T09:03:34;3.20;;;2.43;;
64894;SDS011;51588;53.702;10.208;2023-11-21T09:06:01;2.57;;;2.00;;
64894;SDS011;51588;53.702;10.208;2023-11-21T09:08:28;2.77;;;2.50;;
64894;SDS011;51588;53.702;10.208;2023-11-21T09:10:55;2.83;;;2.30;;
64894;SDS011;51588;53.702;10.208;2023-11-21T09:13:22;2.30;;;2.10;;
64894;SDS011;51588;53.702;10.208;2023-11-21T09:15:50;2.80;;;2.40;;
64894;SDS011;51588;53.702;10.208;2023-11-21T09:18:20;2.53;;;2.00;;
64894;SDS011;51588;53.702;10.208;2023-11-21T09:20:47;5.60;;;2.40;;
64894;SDS011;51588;53.702;10.208;2023-11-21T09:23:13;2.93;;;2.30;;
64894;SDS011;51588;53.702;10.208;2023-11-21T09:25:40;2.47;;;2.20;;
64894;SDS011;51588;53.702;10.208;2023-11-21T09:28:11;3.67;;;2.73;;
64894;SDS011;51588;53.702;10.208;2023-11-21T09:30:38;3.07;;;2.23;;
64894;SDS011;51588;53.702;10.208;2023-11-21T09:33:04;2.67;;;2.10;;
64894;SDS011;51588;53.702;10.208;2023-11-21T09:35:34;2.40;;;2.20;;
64894;SDS011;51588;53.702;10.208;2023-11-21T09:38:00;2.70;;;1.77;;
64894;SDS011;51588;53.702;10.208;2023-11-21T09:40:30;2.77;;;2.30;;
64894;SDS011;51588;53.702;10.208;2023-11-21T09:42:57;2.57;;;2.23;;
64894;SDS011;51588;53.702;10.208;2023-11-21T09:45:27;2.40;;;2.00;;
64894;SDS011;51588;53.702;10.208;2023-11-21T09:47:56;2.30;;;2.10;;
64894;SDS011;51588;53.702;10.208;2023-11-21T09:50:23;3.33;;;1.97;;
64894;SDS011;51588;53.702;10.208;2023-11-21T09:52:57;2.10;;;1.90;;
64894;SDS011;51588;53.702;10.208;2023-11-21T09:55:30;2.23;;;1.87;;
64894;SDS011;51588;53.702;10.208;2023-11-21T09:58:07;2.40;;;1.93;;
64894;SDS011;51588;53.702;10.208;2023-11-21T10:00:37;2.87;;;1.90;;
64894;SDS011;51588;53.702;10.208;2023-11-21T10:03:06;2.83;;;2.07;;
64894;SDS011;51588;53.702;10.208;2023-11-21T10:05:36;2.40;;;2.10;;
64894;SDS011;51588;53.702;10.208;2023-11-21T10:08:07;2.40;;;2.03;;
64894;SDS011;51588;53.702;10.208;2023-11-21T10:10:36;1.87;;;1.70;;
64894;SDS011;51588;53.702;10.208;2023-11-21T10:13:03;2.67;;;1.97;;
64894;SDS011;51588;53.702;10.208;2023-11-21T10:15:33;2.13;;;1.93;;
64894;SDS011;51588;53.702;10.208;2023-11-21T10:18:01;3.10;;;2.10;;
64894;SDS011;51588;53.702;10.208;2023-11-21T10:20:29;1.97;;;1.87;;
64894;SDS011;51588;53.702;10.208;2023-11-21T10:22:58;2.80;;;1.80;;
64894;SDS011;51588;53.702;10.208;2023-11-21T10:25:28;3.93;;;1.90;;
64894;SDS011;51588;53.702;10.208;2023-11-21T10:27:56;3.17;;;2.00;;
64894;SDS011;51588;53.702;10.208;2023-11-21T10:30:31;2.30;;;1.93;;
64894;SDS011;51588;53.702;10.208;2023-11-21T10:33:02;2.13;;;1.83;;
64894;SDS011;51588;53.702;10.208;2023-11-21T10:35:47;2.97;;;2.10;;
64894;SDS011;51588;53.702;10.208;2023-11-21T10:38:16;4.50;;;1.80;;
64894;SDS011;51588;53.702;10.208;2023-11-21T10:40:46;2.13;;;1.90;;
64894;SDS011;51588;53.702;10.208;2023-11-21T10:43:14;2.63;;;2.10;;
64894;SDS011;51588;53.702;10.208;2023-11-21T10:45:47;4.33;;;2.10;;
64894;SDS011;51588;53.702;10.208;2023-11-21T10:48:14;3.50;;;1.80;;
64894;SDS011;51588;53.702;10.208;2023-11-21T10:50:41;3.40;;;1.90;;
64894;SDS011;51588;53.702;10.208;2023-11-21T10:53:11;4.97;;;1.90;;
64894;SDS011;51588;53.702;10.208;2023-11-21T10:55:38;5.03;;;2.10;;
64894;SDS011;51588;53.702;10.208;2023-11-21T10:58:06;3.30;;;1.90;;
64894;SDS011;51588;53.702;10.208;2023-11-21T11:00:36;3.13;;;1.90;;
64894;SDS011;51588;53.702;10.208;2023-11-21T11:03:05;2.10;;;1.90;;
64894;SDS011;51588;53.702;10.208;2023-11-21T11:05:38;2.37;;;2.00;;
64894;SDS011;51588;53.702;10.208;2023-11-21T11:08:12;7.13;;;2.20;;
64894;SDS011;51588;53.702;10.208;2023-11-21T11:10:43;2.93;;;2.07;;
64894;SDS011;51588;53.702;10.208;2023-11-21T11:13:13;2.80;;;1.93;;
64894;SDS011;51588;53.702;10.208;2023-11-21T11:15:40;3.27;;;2.07;;
64894;SDS011;51588;53.702;10.208;2023-11-21T11:18:08;3.10;;;2.00;;
64894;SDS011;51588;53.702;10.208;2023-11-21T11:20:36;1.90;;;1.60;;
64894;SDS011;51588;53.702;10.208;2023-11-21T11:26:07;3.57;;;2.10;;
64894;SDS011;51588;53.702;10.208;2023-11-21T11:28:51;1.93;;;1.73;;
64894;SDS011;51588;53.702;10.208;2023-11-21T11:31:25;2.63;;;1.80;;
64894;SDS011;51588;53.702;10.208;2023-11-21T11:33:57;3.17;;;1.90;;
64894;SDS011;51588;53.702;10.208;2023-11-21T11:36:29;2.40;;;1.97;;
64894;SDS011;51588;53.702;10.208;2023-11-21T11:39:00;2.30;;;2.10;;
64894;SDS011;51588;53.702;10.208;2023-11-21T11:41:27;2.67;;;1.73;;
64894;SDS011;51588;53.702;10.208;2023-11-21T11:43:59;2.57;;;1.70;;
64894;SDS011;51588;53.702;10.208;2023-11-21T11:46:39;2.20;;;2.00;;
64894;SDS011;51588;53.702;10.208;2023-11-21T11:49:10;1.93;;;1.77;;
64894;SDS011;51588;53.702;10.208;2023-11-21T11:51:39;3.80;;;1.83;;
64894;SDS011;51588;53.702;10.208;2023-11-21T11:54:06;3.70;;;2.00;;
64894;SDS011;51588;53.702;10.208;2023-11-21T11:56:33;3.17;;;1.97;;
64894;SDS011;51588;53.702;10.208;2023-11-21T11:59:03;2.47;;;2.00;;
64894;SDS011;51588;53.702;10.208;2023-11-21T12:01:34;1.93;;;1.63;;
64894;SDS011;51588;53.702;10.208;2023-11-21T12:07:03;3.10;;;1.80;;
64894;SDS011;51588;53.702;10.208;2023-11-21T12:09:31;2.33;;;2.03;;
64894;SDS011;51588;53.702;10.208;2023-11-21T12:12:00;1.80;;;1.67;;
64894;SDS011;51588;53.702;10.208;2023-11-21T12:14:32;2.30;;;1.83;;
64894;SDS011;51588;53.702;10.208;2023-11-21T12:16:59;1.60;;;1.50;;
64894;SDS011;51588;53.702;10.208;2023-11-21T12:19:27;2.07;;;1.87;;
64894;SDS011;51588;53.702;10.208;2023-11-21T12:21:54;2.03;;;1.70;;
64894;SDS011;51588;53.702;10.208;2023-11-21T12:24:24;2.00;;;1.77;;
64894;SDS011;51588;53.702;10.208;2023-11-21T12:26:54;2.03;;;1.83;;
64894;SDS011;51588;53.702;10.208;2023-11-21T12:29:20;2.60;;;1.70;;
64894;SDS011;51588;53.702;10.208;2023-11-21T12:31:50;2.27;;;1.80;;
64894;SDS011;51588;53.702;10.208;2023-11-21T12:34:16;2.40;;;1.70;;
64894;SDS011;51588;53.702;10.208;2023-11-21T12:36:43;2.43;;;1.83;;
64894;SDS011;51588;53.702;10.208;2023-11-21T12:39:10;1.97;;;1.80;;
64894;SDS011;51588;53.702;10.208;2023-11-21T12:41:37;2.03;;;1.83;;
64894;SDS011;51588;53.702;10.208;2023-11-21T12:44:04;1.67;;;1.57;;
64894;SDS011;51588;53.702;10.208;2023-11-21T12:46:36;3.13;;;1.60;;
64894;SDS011;51588;53.702;10.208;2023-11-21T12:49:08;1.93;;;1.67;;
64894;SDS011;51588;53.702;10.208;2023-11-21T12:51:33;1.77;;;1.63;;
64894;SDS011;51588;53.702;10.208;2023-11-21T12:54:03;2.17;;;1.60;;
64894;SDS011;51588;53.702;10.208;2023-11-21T12:56:30;1.60;;;1.50;;
64894;SDS011;51588;53.702;10.208;2023-11-21T12:58:57;3.77;;;1.97;;
64894;SDS011;51588;53.702;10.208;2023-11-21T13:01:30;1.90;;;1.70;;
64894;SDS011;51588;53.702;10.208;2023-11-21T13:03:57;1.70;;;1.60;;
64894;SDS011;51588;53.702;10.208;2023-11-21T13:06:28;2.07;;;1.80;;
64894;SDS011;51588;53.702;10.208;2023-11-21T13:08:59;1.90;;;1.70;;
64894;SDS011;51588;53.702;10.208;2023-11-21T13:11:26;1.60;;;1.50;;
64894;SDS011;51588;53.702;10.208;2023-11-21T13:13:53;2.47;;;2.00;;
64894;SDS011;51588;53.702;10.208;2023-11-21T13:16:21;2.07;;;1.60;;
64894;SDS011;51588;53.702;10.208;2023-11-21T13:18:49;1.70;;;1.60;;
64894;SDS011;51588;53.702;10.208;2023-11-21T13:21:18;1.50;;;1.40;;
64894;SDS011;51588;53.702;10.208;2023-11-21T13:23:48;2.07;;;1.70;;
64894;SDS011;51588;53.702;10.208;2023-11-21T13:26:17;1.40;;;1.30;;
64894;SDS011;51588;53.702;10.208;2023-11-21T13:28:45;1.80;;;1.70;;
64894;SDS011;51588;53.702;10.208;2023-11-21T13:31:12;2.30;;;1.83;;
64894;SDS011;51588;53.702;10.208;2023-11-21T13:33:51;1.83;;;1.73;;
64894;SDS011;51588;53.702;10.208;2023-11-21T13:36:26;1.73;;;1.53;;
64894;SDS011;51588;53.702;10.208;2023-11-21T13:39:01;1.63;;;1.53;;
64894;SDS011;51588;53.702;10.208;2023-11-21T13:41:32;1.57;;;1.47;;
64894;SDS011;51588;53.702;10.208;2023-11-21T13:43:59;1.90;;;1.70;;
64894;SDS011;51588;53.702;10.208;2023-11-21T13:46:39;1.50;;;1.40;;
64894;SDS011;51588;53.702;10.208;2023-11-21T13:49:06;1.90;;;1.60;;
64894;SDS011;51588;53.702;10.208;2023-11-21T13:51:35;2.67;;;1.57;;
64894;SDS011;51588;53.702;10.208;2023-11-21T13:54:09;2.03;;;1.37;;
64894;SDS011;51588;53.702;10.208;2023-11-21T13:56:39;1.87;;;1.67;;
64894;SDS011;51588;53.702;10.208;2023-11-21T13:59:09;1.50;;;1.40;;
64894;SDS011;51588;53.702;10.208;2023-11-21T14:01:44;4.23;;;1.50;;
64894;SDS011;51588;53.702;10.208;2023-11-21T14:04:23;1.73;;;1.63;;
64894;SDS011;51588;53.702;10.208;2023-11-21T14:07:20;1.87;;;1.67;;
64894;SDS011;51588;53.702;10.208;2023-11-21T14:09:54;2.67;;;1.87;;
64894;SDS011;51588;53.702;10.208;2023-11-21T14:12:21;1.63;;;1.40;;
64894;SDS011;51588;53.702;10.208;2023-11-21T14:14:48;3.00;;;1.70;;
64894;SDS011;51588;53.702;10.208;2023-11-21T14:17:15;6.40;;;1.30;;
64894;SDS011;51588;53.702;10.208;2023-11-21T14:19:41;4.23;;;1.73;;
64894;SDS011;51588;53.702;10.208;2023-11-21T14:22:09;1.90;;;1.50;;
64894;SDS011;51588;53.702;10.208;2023-11-21T14:24:35;2.00;;;1.50;;
64894;SDS011;51588;53.702;10.208;2023-11-21T14:27:10;2.90;;;1.57;;
64894;SDS011;51588;53.702;10.208;2023-11-21T14:29:40;9.13;;;1.50;;
64894;SDS011;51588;53.702;10.208;2023-11-21T14:32:09;1.50;;;1.40;;
64894;SDS011;51588;53.702;10.208;2023-11-21T14:34:41;4.93;;;1.60;;
64894;SDS011;51588;53.702;10.208;2023-11-21T14:37:12;2.73;;;1.70;;
64894;SDS011;51588;53.702;10.208;2023-11-21T14:39:39;1.53;;;1.43;;
64894;SDS011;51588;53.702;10.208;2023-11-21T14:42:14;2.37;;;1.70;;
64894;SDS011;51588;53.702;10.208;2023-11-21T14:44:41;2.90;;;1.60;;
64894;SDS011;51588;53.702;10.208;2023-11-21T14:47:08;5.23;;;1.70;;